sensor_id;sensor_type;location;lat;lon;timestamp;temperature;humidity
7900;DHT22;3995;50.856;4.404;2024-03-17T00:02:02;13.80;54.80
7900;DHT22;3995;50.856;4.404;2024-03-17T00:04:30;13.80;54.70
7900;DHT22;3995;50.856;4.404;2024-03-17T00:06:57;13.80;54.80
7900;DHT22;3995;50.856;4.404;2024-03-17T00:09:23;13.80;54.80
7900;DHT22;3995;50.856;4.404;2024-03-17T00:11:51;13.80;54.80
7900;DHT22;3995;50.856;4.404;2024-03-17T00:14:16;13.80;54.90
7900;DHT22;3995;50.856;4.404;2024-03-17T00:16:44;13.80;54.90
7900;DHT22;3995;50.856;4.404;2024-03-17T00:19:11;13.80;54.90
7900;DHT22;3995;50.856;4.404;2024-03-17T00:21:40;13.80;54.90
7900;DHT22;3995;50.856;4.404;2024-03-17T00:24:06;13.80;54.90
7900;DHT22;3995;50.856;4.404;2024-03-17T00:26:34;13.70;55.10
7900;DHT22;3995;50.856;4.404;2024-03-17T00:29:00;13.70;54.90
7900;DHT22;3995;50.856;4.404;2024-03-17T00:31:28;13.70;54.90
7900;DHT22;3995;50.856;4.404;2024-03-17T00:33:54;13.70;54.90
7900;DHT22;3995;50.856;4.404;2024-03-17T00:36:22;13.70;54.90
7900;DHT22;3995;50.856;4.404;2024-03-17T00:38:49;13.70;55.00
7900;DHT22;3995;50.856;4.404;2024-03-17T00:41:17;13.80;55.00
7900;DHT22;3995;50.856;4.404;2024-03-17T00:43:45;13.70;55.00
7900;DHT22;3995;50.856;4.404;2024-03-17T00:46:12;13.70;55.00
7900;DHT22;3995;50.856;4.404;2024-03-17T00:48:38;13.70;55.10
7900;DHT22;3995;50.856;4.404;2024-03-17T00:51:05;13.70;55.20
7900;DHT22;3995;50.856;4.404;2024-03-17T00:53:31;13.70;55.10
7900;DHT22;3995;50.856;4.404;2024-03-17T00:56:01;13.70;55.10
7900;DHT22;3995;50.856;4.404;2024-03-17T00:58:27;13.70;55.10
7900;DHT22;3995;50.856;4.404;2024-03-17T01:00:54;13.70;55.10
7900;DHT22;3995;50.856;4.404;2024-03-17T01:03:20;13.60;55.10
7900;DHT22;3995;50.856;4.404;2024-03-17T01:05:48;13.60;55.10
7900;DHT22;3995;50.856;4.404;2024-03-17T01:08:16;13.60;55.10
7900;DHT22;3995;50.856;4.404;2024-03-17T01:10:44;13.70;55.10
7900;DHT22;3995;50.856;4.404;2024-03-17T01:13:12;13.70;55.10
7900;DHT22;3995;50.856;4.404;2024-03-17T01:15:40;13.60;55.10
7900;DHT22;3995;50.856;4.404;2024-03-17T01:18:06;13.60;55.10
7900;DHT22;3995;50.856;4.404;2024-03-17T01:20:35;13.60;55.20
7900;DHT22;3995;50.856;4.404;2024-03-17T01:23:02;13.60;55.20
7900;DHT22;3995;50.856;4.404;2024-03-17T01:25:29;13.60;55.30
7900;DHT22;3995;50.856;4.404;2024-03-17T01:27:56;13.60;55.30
7900;DHT22;3995;50.856;4.404;2024-03-17T01:30:24;13.60;55.30
7900;DHT22;3995;50.856;4.404;2024-03-17T01:32:51;13.60;55.30
7900;DHT22;3995;50.856;4.404;2024-03-17T01:35:18;13.60;55.30
7900;DHT22;3995;50.856;4.404;2024-03-17T01:37:44;13.60;55.30
7900;DHT22;3995;50.856;4.404;2024-03-17T01:40:11;13.60;55.40
7900;DHT22;3995;50.856;4.404;2024-03-17T01:42:38;13.60;55.50
7900;DHT22;3995;50.856;4.404;2024-03-17T01:45:23;13.60;55.40
7900;DHT22;3995;50.856;4.404;2024-03-17T01:47:53;13.60;55.30
7900;DHT22;3995;50.856;4.404;2024-03-17T01:50:24;13.60;56.10
7900;DHT22;3995;50.856;4.404;2024-03-17T01:52:52;13.60;55.50
7900;DHT22;3995;50.856;4.404;2024-03-17T01:55:20;13.60;55.50
7900;DHT22;3995;50.856;4.404;2024-03-17T01:57:46;13.60;55.50
7900;DHT22;3995;50.856;4.404;2024-03-17T02:00:14;13.60;55.50
7900;DHT22;3995;50.856;4.404;2024-03-17T02:02:40;13.60;55.60
7900;DHT22;3995;50.856;4.404;2024-03-17T02:05:09;13.60;55.70
7900;DHT22;3995;50.856;4.404;2024-03-17T02:07:36;13.60;55.60
7900;DHT22;3995;50.856;4.404;2024-03-17T02:10:03;13.60;55.60
7900;DHT22;3995;50.856;4.404;2024-03-17T02:12:31;13.60;55.60
7900;DHT22;3995;50.856;4.404;2024-03-17T02:14:59;13.60;55.70
7900;DHT22;3995;50.856;4.404;2024-03-17T02:17:25;13.60;55.60
7900;DHT22;3995;50.856;4.404;2024-03-17T02:19:53;13.60;55.60
7900;DHT22;3995;50.856;4.404;2024-03-17T02:22:26;13.60;55.70
7900;DHT22;3995;50.856;4.404;2024-03-17T02:24:54;13.70;55.90
7900;DHT22;3995;50.856;4.404;2024-03-17T02:27:20;13.60;55.80
7900;DHT22;3995;50.856;4.404;2024-03-17T02:29:49;13.60;55.80
7900;DHT22;3995;50.856;4.404;2024-03-17T02:32:16;13.70;55.80
7900;DHT22;3995;50.856;4.404;2024-03-17T02:34:43;13.60;55.80
7900;DHT22;3995;50.856;4.404;2024-03-17T02:37:10;13.60;55.70
7900;DHT22;3995;50.856;4.404;2024-03-17T02:39:40;13.60;55.70
7900;DHT22;3995;50.856;4.404;2024-03-17T02:42:07;13.70;55.80
7900;DHT22;3995;50.856;4.404;2024-03-17T02:44:36;13.60;55.80
7900;DHT22;3995;50.856;4.404;2024-03-17T02:47:06;13.60;55.90
7900;DHT22;3995;50.856;4.404;2024-03-17T02:49:36;13.60;55.80
7900;DHT22;3995;50.856;4.404;2024-03-17T02:52:07;13.60;55.80
7900;DHT22;3995;50.856;4.404;2024-03-17T02:54:35;13.70;55.90
7900;DHT22;3995;50.856;4.404;2024-03-17T02:57:09;13.60;55.80
7900;DHT22;3995;50.856;4.404;2024-03-17T02:59:39;13.70;55.90
7900;DHT22;3995;50.856;4.404;2024-03-17T03:05:49;13.70;55.80
7900;DHT22;3995;50.856;4.404;2024-03-17T03:08:18;13.60;56.10
7900;DHT22;3995;50.856;4.404;2024-03-17T03:11:05;13.60;56.00
7900;DHT22;3995;50.856;4.404;2024-03-17T03:14:18;13.60;56.00
7900;DHT22;3995;50.856;4.404;2024-03-17T03:19:49;13.50;56.20
7900;DHT22;3995;50.856;4.404;2024-03-17T03:23:05;13.50;56.20
7900;DHT22;3995;50.856;4.404;2024-03-17T03:25:45;13.60;56.10
7900;DHT22;3995;50.856;4.404;2024-03-17T03:28:29;13.50;56.20
7900;DHT22;3995;50.856;4.404;2024-03-17T03:31:53;13.50;56.10
7900;DHT22;3995;50.856;4.404;2024-03-17T03:34:44;13.50;56.10
7900;DHT22;3995;50.856;4.404;2024-03-17T03:37:18;13.50;56.30
7900;DHT22;3995;50.856;4.404;2024-03-17T03:40:07;13.50;56.40
7900;DHT22;3995;50.856;4.404;2024-03-17T03:42:54;13.50;56.30
7900;DHT22;3995;50.856;4.404;2024-03-17T03:45:45;13.60;56.40
7900;DHT22;3995;50.856;4.404;2024-03-17T03:48:37;13.60;56.40
7900;DHT22;3995;50.856;4.404;2024-03-17T03:51:38;13.50;56.30
7900;DHT22;3995;50.856;4.404;2024-03-17T03:54:56;13.50;56.40
7900;DHT22;3995;50.856;4.404;2024-03-17T04:08:01;13.50;56.60
7900;DHT22;3995;50.856;4.404;2024-03-17T04:12:12;13.50;56.70
7900;DHT22;3995;50.856;4.404;2024-03-17T04:14:08;13.50;56.80
7900;DHT22;3995;50.856;4.404;2024-03-17T04:17:18;13.40;56.70
7900;DHT22;3995;50.856;4.404;2024-03-17T04:19:55;13.40;56.70
7900;DHT22;3995;50.856;4.404;2024-03-17T04:36:06;13.40;56.80
7900;DHT22;3995;50.856;4.404;2024-03-17T04:38:34;13.30;56.90
7900;DHT22;3995;50.856;4.404;2024-03-17T04:41:03;13.40;57.00
7900;DHT22;3995;50.856;4.404;2024-03-17T04:43:31;13.40;57.00
7900;DHT22;3995;50.856;4.404;2024-03-17T04:46:03;13.40;56.90
7900;DHT22;3995;50.856;4.404;2024-03-17T04:48:31;13.40;56.90
7900;DHT22;3995;50.856;4.404;2024-03-17T04:50:58;13.40;56.90
7900;DHT22;3995;50.856;4.404;2024-03-17T04:53:27;13.40;56.90
7900;DHT22;3995;50.856;4.404;2024-03-17T04:56:01;13.40;56.90
7900;DHT22;3995;50.856;4.404;2024-03-17T04:58:29;13.40;56.90
7900;DHT22;3995;50.856;4.404;2024-03-17T05:00:56;13.40;57.00
7900;DHT22;3995;50.856;4.404;2024-03-17T05:03:23;13.50;57.10
7900;DHT22;3995;50.856;4.404;2024-03-17T05:05:58;13.50;57.00
7900;DHT22;3995;50.856;4.404;2024-03-17T05:08:28;13.50;57.00
7900;DHT22;3995;50.856;4.404;2024-03-17T05:10:59;13.40;57.00
7900;DHT22;3995;50.856;4.404;2024-03-17T05:13:26;13.40;57.00
7900;DHT22;3995;50.856;4.404;2024-03-17T05:15:53;13.50;57.10
7900;DHT22;3995;50.856;4.404;2024-03-17T05:18:20;13.40;57.00
7900;DHT22;3995;50.856;4.404;2024-03-17T05:20:56;13.40;57.00
7900;DHT22;3995;50.856;4.404;2024-03-17T05:23:25;13.40;57.10
7900;DHT22;3995;50.856;4.404;2024-03-17T05:25:54;13.40;57.30
7900;DHT22;3995;50.856;4.404;2024-03-17T05:28:21;13.40;57.30
7900;DHT22;3995;50.856;4.404;2024-03-17T05:30:48;13.40;57.30
7900;DHT22;3995;50.856;4.404;2024-03-17T05:33:16;13.40;57.30
7900;DHT22;3995;50.856;4.404;2024-03-17T05:35:48;13.40;57.40
7900;DHT22;3995;50.856;4.404;2024-03-17T05:38:16;13.40;57.30
7900;DHT22;3995;50.856;4.404;2024-03-17T05:40:42;13.30;57.30
7900;DHT22;3995;50.856;4.404;2024-03-17T05:43:10;13.30;57.30
7900;DHT22;3995;50.856;4.404;2024-03-17T05:45:38;13.40;57.40
7900;DHT22;3995;50.856;4.404;2024-03-17T05:48:05;13.30;57.30
7900;DHT22;3995;50.856;4.404;2024-03-17T05:50:32;13.30;57.40
7900;DHT22;3995;50.856;4.404;2024-03-17T05:53:01;13.30;57.40
7900;DHT22;3995;50.856;4.404;2024-03-17T05:55:28;13.30;57.30
7900;DHT22;3995;50.856;4.404;2024-03-17T05:57:55;13.30;58.00
7900;DHT22;3995;50.856;4.404;2024-03-17T06:00:23;13.30;57.40
7900;DHT22;3995;50.856;4.404;2024-03-17T06:02:50;13.30;57.50
7900;DHT22;3995;50.856;4.404;2024-03-17T06:05:17;13.40;57.50
7900;DHT22;3995;50.856;4.404;2024-03-17T06:07:44;13.30;57.50
7900;DHT22;3995;50.856;4.404;2024-03-17T06:10:12;13.30;57.60
7900;DHT22;3995;50.856;4.404;2024-03-17T06:12:39;13.30;57.60
7900;DHT22;3995;50.856;4.404;2024-03-17T06:15:07;13.30;57.60
7900;DHT22;3995;50.856;4.404;2024-03-17T06:17:35;13.30;57.60
7900;DHT22;3995;50.856;4.404;2024-03-17T06:20:02;13.30;57.60
7900;DHT22;3995;50.856;4.404;2024-03-17T06:22:31;13.30;57.70
7900;DHT22;3995;50.856;4.404;2024-03-17T06:24:58;13.30;57.70
7900;DHT22;3995;50.856;4.404;2024-03-17T06:27:25;13.40;57.80
7900;DHT22;3995;50.856;4.404;2024-03-17T06:29:51;13.40;57.80
7900;DHT22;3995;50.856;4.404;2024-03-17T06:32:18;13.40;57.80
7900;DHT22;3995;50.856;4.404;2024-03-17T06:34:47;13.40;57.80
7900;DHT22;3995;50.856;4.404;2024-03-17T06:37:14;13.40;57.80
7900;DHT22;3995;50.856;4.404;2024-03-17T06:39:41;13.40;57.90
7900;DHT22;3995;50.856;4.404;2024-03-17T06:42:08;13.40;57.90
7900;DHT22;3995;50.856;4.404;2024-03-17T06:44:36;13.40;57.80
7900;DHT22;3995;50.856;4.404;2024-03-17T06:47:05;13.40;57.90
7900;DHT22;3995;50.856;4.404;2024-03-17T06:49:32;13.40;58.00
7900;DHT22;3995;50.856;4.404;2024-03-17T06:52:00;13.40;57.90
7900;DHT22;3995;50.856;4.404;2024-03-17T06:54:27;13.50;58.00
7900;DHT22;3995;50.856;4.404;2024-03-17T06:56:54;13.40;58.00
7900;DHT22;3995;50.856;4.404;2024-03-17T06:59:21;13.40;57.90
7900;DHT22;3995;50.856;4.404;2024-03-17T07:01:49;13.50;58.10
7900;DHT22;3995;50.856;4.404;2024-03-17T07:04:16;13.50;58.10
7900;DHT22;3995;50.856;4.404;2024-03-17T07:06:43;13.50;58.10
7900;DHT22;3995;50.856;4.404;2024-03-17T07:09:11;13.50;58.10
7900;DHT22;3995;50.856;4.404;2024-03-17T07:11:38;13.50;58.10
7900;DHT22;3995;50.856;4.404;2024-03-17T07:14:05;13.50;58.20
7900;DHT22;3995;50.856;4.404;2024-03-17T07:16:32;13.50;58.20
7900;DHT22;3995;50.856;4.404;2024-03-17T07:19:01;13.50;58.30
7900;DHT22;3995;50.856;4.404;2024-03-17T07:21:28;13.50;58.30
7900;DHT22;3995;50.856;4.404;2024-03-17T07:23:55;13.50;58.40
7900;DHT22;3995;50.856;4.404;2024-03-17T07:26:26;13.50;58.40
7900;DHT22;3995;50.856;4.404;2024-03-17T07:28:53;13.60;58.50
7900;DHT22;3995;50.856;4.404;2024-03-17T07:31:20;13.60;58.50
7900;DHT22;3995;50.856;4.404;2024-03-17T07:33:47;13.60;58.60
7900;DHT22;3995;50.856;4.404;2024-03-17T07:36:15;13.50;58.50
7900;DHT22;3995;50.856;4.404;2024-03-17T07:38:41;13.50;58.60
7900;DHT22;3995;50.856;4.404;2024-03-17T07:41:09;13.60;58.80
7900;DHT22;3995;50.856;4.404;2024-03-17T07:43:38;13.60;58.80
7900;DHT22;3995;50.856;4.404;2024-03-17T07:46:06;13.60;58.90
7900;DHT22;3995;50.856;4.404;2024-03-17T07:48:35;13.60;59.00
7900;DHT22;3995;50.856;4.404;2024-03-17T07:51:04;13.60;59.10
7900;DHT22;3995;50.856;4.404;2024-03-17T07:53:32;13.60;59.20
7900;DHT22;3995;50.856;4.404;2024-03-17T07:56:00;13.60;59.30
7900;DHT22;3995;50.856;4.404;2024-03-17T07:58:27;13.60;59.30
7900;DHT22;3995;50.856;4.404;2024-03-17T08:00:59;13.70;59.40
7900;DHT22;3995;50.856;4.404;2024-03-17T08:03:26;13.70;59.40
7900;DHT22;3995;50.856;4.404;2024-03-17T08:05:53;13.70;59.50
7900;DHT22;3995;50.856;4.404;2024-03-17T08:08:20;13.80;59.60
7900;DHT22;3995;50.856;4.404;2024-03-17T08:10:47;13.80;59.80
7900;DHT22;3995;50.856;4.404;2024-03-17T08:13:14;13.80;59.80
7900;DHT22;3995;50.856;4.404;2024-03-17T08:15:42;13.80;59.80
7900;DHT22;3995;50.856;4.404;2024-03-17T08:18:11;13.90;60.00
7900;DHT22;3995;50.856;4.404;2024-03-17T08:20:38;13.90;60.00
7900;DHT22;3995;50.856;4.404;2024-03-17T08:23:05;14.00;60.20
7900;DHT22;3995;50.856;4.404;2024-03-17T08:25:33;14.00;60.20
7900;DHT22;3995;50.856;4.404;2024-03-17T08:28:00;14.00;60.20
7900;DHT22;3995;50.856;4.404;2024-03-17T08:30:27;14.00;60.30
7900;DHT22;3995;50.856;4.404;2024-03-17T08:32:54;14.00;60.30
7900;DHT22;3995;50.856;4.404;2024-03-17T08:35:23;14.00;60.40
7900;DHT22;3995;50.856;4.404;2024-03-17T08:37:50;14.10;60.70
7900;DHT22;3995;50.856;4.404;2024-03-17T08:40:19;14.10;60.70
7900;DHT22;3995;50.856;4.404;2024-03-17T08:42:46;14.10;60.80
7900;DHT22;3995;50.856;4.404;2024-03-17T08:45:13;14.10;60.80
7900;DHT22;3995;50.856;4.404;2024-03-17T08:47:40;14.10;60.90
7900;DHT22;3995;50.856;4.404;2024-03-17T08:50:08;14.10;61.00
7900;DHT22;3995;50.856;4.404;2024-03-17T08:52:39;14.20;61.10
7900;DHT22;3995;50.856;4.404;2024-03-17T08:55:08;14.10;61.10
7900;DHT22;3995;50.856;4.404;2024-03-17T08:57:39;14.20;61.20
7900;DHT22;3995;50.856;4.404;2024-03-17T09:00:07;14.20;61.30
7900;DHT22;3995;50.856;4.404;2024-03-17T09:02:34;14.20;61.30
7900;DHT22;3995;50.856;4.404;2024-03-17T09:05:01;14.20;61.30
7900;DHT22;3995;50.856;4.404;2024-03-17T09:07:29;14.30;61.30
7900;DHT22;3995;50.856;4.404;2024-03-17T09:09:59;14.30;61.20
7900;DHT22;3995;50.856;4.404;2024-03-17T09:12:26;14.30;61.40
7900;DHT22;3995;50.856;4.404;2024-03-17T09:14:53;14.40;62.10
7900;DHT22;3995;50.856;4.404;2024-03-17T09:17:20;14.40;61.30
7900;DHT22;3995;50.856;4.404;2024-03-17T09:19:47;14.40;61.30
7900;DHT22;3995;50.856;4.404;2024-03-17T09:22:14;14.40;61.30
7900;DHT22;3995;50.856;4.404;2024-03-17T09:24:41;14.50;61.40
7900;DHT22;3995;50.856;4.404;2024-03-17T09:27:10;14.50;61.40
7900;DHT22;3995;50.856;4.404;2024-03-17T09:29:37;14.50;61.50
7900;DHT22;3995;50.856;4.404;2024-03-17T09:32:04;14.50;61.50
7900;DHT22;3995;50.856;4.404;2024-03-17T09:34:31;14.50;61.50
7900;DHT22;3995;50.856;4.404;2024-03-17T09:36:58;14.50;61.50
7900;DHT22;3995;50.856;4.404;2024-03-17T09:39:26;14.50;61.50
7900;DHT22;3995;50.856;4.404;2024-03-17T09:41:53;14.50;61.50
7900;DHT22;3995;50.856;4.404;2024-03-17T09:44:22;14.50;61.60
7900;DHT22;3995;50.856;4.404;2024-03-17T09:46:50;14.60;61.70
7900;DHT22;3995;50.856;4.404;2024-03-17T09:49:17;14.50;61.60
7900;DHT22;3995;50.856;4.404;2024-03-17T09:51:44;14.50;61.70
7900;DHT22;3995;50.856;4.404;2024-03-17T09:54:17;14.50;61.80
7900;DHT22;3995;50.856;4.404;2024-03-17T09:56:45;14.60;62.00
7900;DHT22;3995;50.856;4.404;2024-03-17T09:59:12;14.50;62.00
7900;DHT22;3995;50.856;4.404;2024-03-17T10:01:41;14.50;62.10
7900;DHT22;3995;50.856;4.404;2024-03-17T10:04:11;14.50;62.10
7900;DHT22;3995;50.856;4.404;2024-03-17T10:06:45;14.50;62.20
7900;DHT22;3995;50.856;4.404;2024-03-17T10:09:16;14.60;62.20
7900;DHT22;3995;50.856;4.404;2024-03-17T10:11:47;14.50;62.30
7900;DHT22;3995;50.856;4.404;2024-03-17T10:14:17;14.50;62.30
7900;DHT22;3995;50.856;4.404;2024-03-17T10:16:45;14.50;62.40
7900;DHT22;3995;50.856;4.404;2024-03-17T10:19:13;14.60;62.60
7900;DHT22;3995;50.856;4.404;2024-03-17T10:21:41;14.60;62.60
7900;DHT22;3995;50.856;4.404;2024-03-17T10:24:10;14.60;62.80
7900;DHT22;3995;50.856;4.404;2024-03-17T10:26:37;14.60;62.90
7900;DHT22;3995;50.856;4.404;2024-03-17T10:29:05;14.50;62.80
7900;DHT22;3995;50.856;4.404;2024-03-17T10:31:32;14.60;63.00
7900;DHT22;3995;50.856;4.404;2024-03-17T10:34:12;14.60;63.00
7900;DHT22;3995;50.856;4.404;2024-03-17T10:36:41;14.60;63.10
7900;DHT22;3995;50.856;4.404;2024-03-17T10:39:25;14.60;63.20
7900;DHT22;3995;50.856;4.404;2024-03-17T10:41:59;14.70;63.30
7900;DHT22;3995;50.856;4.404;2024-03-17T10:44:26;14.70;63.50
7900;DHT22;3995;50.856;4.404;2024-03-17T10:46:55;14.60;63.50
7900;DHT22;3995;50.856;4.404;2024-03-17T10:49:28;14.70;63.70
7900;DHT22;3995;50.856;4.404;2024-03-17T10:51:59;14.70;63.80
7900;DHT22;3995;50.856;4.404;2024-03-17T10:54:26;14.70;63.90
7900;DHT22;3995;50.856;4.404;2024-03-17T10:56:55;14.70;64.70
7900;DHT22;3995;50.856;4.404;2024-03-17T10:59:32;14.70;64.10
7900;DHT22;3995;50.856;4.404;2024-03-17T11:02:02;14.80;64.20
7900;DHT22;3995;50.856;4.404;2024-03-17T11:04:31;14.70;64.20
7900;DHT22;3995;50.856;4.404;2024-03-17T11:06:58;14.80;64.40
7900;DHT22;3995;50.856;4.404;2024-03-17T11:09:26;14.80;64.40
7900;DHT22;3995;50.856;4.404;2024-03-17T11:11:53;14.80;64.40
7900;DHT22;3995;50.856;4.404;2024-03-17T11:14:21;14.80;64.40
7900;DHT22;3995;50.856;4.404;2024-03-17T11:16:49;14.90;64.60
7900;DHT22;3995;50.856;4.404;2024-03-17T11:19:16;14.90;64.60
7900;DHT22;3995;50.856;4.404;2024-03-17T11:21:45;14.90;64.70
7900;DHT22;3995;50.856;4.404;2024-03-17T11:24:20;15.00;64.80
7900;DHT22;3995;50.856;4.404;2024-03-17T11:26:47;15.10;64.90
7900;DHT22;3995;50.856;4.404;2024-03-17T11:29:28;15.10;65.00
7900;DHT22;3995;50.856;4.404;2024-03-17T11:31:55;15.20;65.50
7900;DHT22;3995;50.856;4.404;2024-03-17T11:34:31;15.20;64.90
7900;DHT22;3995;50.856;4.404;2024-03-17T11:37:02;15.30;64.90
7900;DHT22;3995;50.856;4.404;2024-03-17T11:39:49;15.30;64.90
7900;DHT22;3995;50.856;4.404;2024-03-17T11:42:18;15.40;64.90
7900;DHT22;3995;50.856;4.404;2024-03-17T11:44:59;15.30;65.00
7900;DHT22;3995;50.856;4.404;2024-03-17T11:47:34;15.40;64.80
7900;DHT22;3995;50.856;4.404;2024-03-17T11:50:03;15.50;65.20
7900;DHT22;3995;50.856;4.404;2024-03-17T11:52:32;15.50;65.40
7900;DHT22;3995;50.856;4.404;2024-03-17T11:54:58;15.60;65.30
7900;DHT22;3995;50.856;4.404;2024-03-17T11:57:26;15.60;65.20
7900;DHT22;3995;50.856;4.404;2024-03-17T11:59:54;15.70;65.30
7900;DHT22;3995;50.856;4.404;2024-03-17T12:02:23;15.60;65.20
7900;DHT22;3995;50.856;4.404;2024-03-17T12:04:51;15.70;65.30
7900;DHT22;3995;50.856;4.404;2024-03-17T12:07:20;15.70;65.40
7900;DHT22;3995;50.856;4.404;2024-03-17T12:09:51;15.80;65.50
7900;DHT22;3995;50.856;4.404;2024-03-17T12:12:18;15.80;65.60
7900;DHT22;3995;50.856;4.404;2024-03-17T12:14:46;15.80;65.60
7900;DHT22;3995;50.856;4.404;2024-03-17T12:17:15;15.80;65.60
7900;DHT22;3995;50.856;4.404;2024-03-17T12:19:44;15.80;65.50
7900;DHT22;3995;50.856;4.404;2024-03-17T12:22:17;15.90;65.50
7900;DHT22;3995;50.856;4.404;2024-03-17T12:24:48;15.90;65.40
7900;DHT22;3995;50.856;4.404;2024-03-17T12:27:18;15.90;65.40
7900;DHT22;3995;50.856;4.404;2024-03-17T12:29:47;15.90;65.30
7900;DHT22;3995;50.856;4.404;2024-03-17T12:32:15;16.00;65.50
7900;DHT22;3995;50.856;4.404;2024-03-17T12:34:43;16.00;65.50
7900;DHT22;3995;50.856;4.404;2024-03-17T12:37:16;16.10;65.60
7900;DHT22;3995;50.856;4.404;2024-03-17T12:39:43;16.10;65.40
7900;DHT22;3995;50.856;4.404;2024-03-17T12:42:11;16.10;65.40
7900;DHT22;3995;50.856;4.404;2024-03-17T12:44:46;16.10;65.30
7900;DHT22;3995;50.856;4.404;2024-03-17T12:47:15;16.20;65.90
7900;DHT22;3995;50.856;4.404;2024-03-17T12:49:45;16.20;65.30
7900;DHT22;3995;50.856;4.404;2024-03-17T12:52:18;16.20;65.40
7900;DHT22;3995;50.856;4.404;2024-03-17T12:54:45;16.20;65.30
7900;DHT22;3995;50.856;4.404;2024-03-17T12:57:42;16.20;65.30
7900;DHT22;3995;50.856;4.404;2024-03-17T13:00:28;16.20;65.40
7900;DHT22;3995;50.856;4.404;2024-03-17T13:02:59;16.20;65.30
7900;DHT22;3995;50.856;4.404;2024-03-17T13:05:27;16.20;65.30
7900;DHT22;3995;50.856;4.404;2024-03-17T13:07:54;16.20;65.30
7900;DHT22;3995;50.856;4.404;2024-03-17T13:10:23;16.20;65.40
7900;DHT22;3995;50.856;4.404;2024-03-17T13:12:58;16.20;65.40
7900;DHT22;3995;50.856;4.404;2024-03-17T13:15:27;16.20;65.50
7900;DHT22;3995;50.856;4.404;2024-03-17T13:17:56;16.20;65.60
7900;DHT22;3995;50.856;4.404;2024-03-17T13:20:23;16.20;65.60
7900;DHT22;3995;50.856;4.404;2024-03-17T13:22:51;16.20;65.60
7900;DHT22;3995;50.856;4.404;2024-03-17T13:25:19;16.20;65.50
7900;DHT22;3995;50.856;4.404;2024-03-17T13:27:48;16.20;65.60
7900;DHT22;3995;50.856;4.404;2024-03-17T13:30:16;16.10;65.60
7900;DHT22;3995;50.856;4.404;2024-03-17T13:32:46;16.10;65.80
7900;DHT22;3995;50.856;4.404;2024-03-17T13:35:15;16.10;65.90
7900;DHT22;3995;50.856;4.404;2024-03-17T13:37:43;16.10;66.00
7900;DHT22;3995;50.856;4.404;2024-03-17T13:40:11;16.10;66.60
7900;DHT22;3995;50.856;4.404;2024-03-17T13:42:42;16.10;66.20
7900;DHT22;3995;50.856;4.404;2024-03-17T13:45:11;16.10;66.30
7900;DHT22;3995;50.856;4.404;2024-03-17T13:47:38;16.10;66.20
7900;DHT22;3995;50.856;4.404;2024-03-17T13:50:07;16.10;66.20
7900;DHT22;3995;50.856;4.404;2024-03-17T13:52:38;16.10;66.20
7900;DHT22;3995;50.856;4.404;2024-03-17T13:55:06;16.10;66.20
7900;DHT22;3995;50.856;4.404;2024-03-17T13:57:34;16.10;66.20
7900;DHT22;3995;50.856;4.404;2024-03-17T14:00:01;16.10;66.20
7900;DHT22;3995;50.856;4.404;2024-03-17T14:02:29;16.10;66.20
7900;DHT22;3995;50.856;4.404;2024-03-17T14:04:56;16.10;66.30
7900;DHT22;3995;50.856;4.404;2024-03-17T14:07:25;16.00;66.40
7900;DHT22;3995;50.856;4.404;2024-03-17T14:09:52;16.10;66.60
7900;DHT22;3995;50.856;4.404;2024-03-17T14:12:19;16.10;66.80
7900;DHT22;3995;50.856;4.404;2024-03-17T14:14:46;16.10;66.90
7900;DHT22;3995;50.856;4.404;2024-03-17T14:17:13;16.10;67.10
7900;DHT22;3995;50.856;4.404;2024-03-17T14:19:40;16.10;67.20
7900;DHT22;3995;50.856;4.404;2024-03-17T14:22:07;16.00;67.20
7900;DHT22;3995;50.856;4.404;2024-03-17T14:24:35;16.00;67.10
7900;DHT22;3995;50.856;4.404;2024-03-17T14:27:02;16.00;67.30
7900;DHT22;3995;50.856;4.404;2024-03-17T14:29:30;16.00;67.50
7900;DHT22;3995;50.856;4.404;2024-03-17T14:31:57;16.00;67.50
7900;DHT22;3995;50.856;4.404;2024-03-17T14:34:24;16.00;67.60
7900;DHT22;3995;50.856;4.404;2024-03-17T14:36:52;16.00;67.70
7900;DHT22;3995;50.856;4.404;2024-03-17T14:39:19;16.00;68.20
7900;DHT22;3995;50.856;4.404;2024-03-17T14:41:48;16.00;68.50
7900;DHT22;3995;50.856;4.404;2024-03-17T14:44:15;16.00;68.60
7900;DHT22;3995;50.856;4.404;2024-03-17T14:46:46;16.00;68.70
7900;DHT22;3995;50.856;4.404;2024-03-17T14:49:15;16.10;69.00
7900;DHT22;3995;50.856;4.404;2024-03-17T14:51:42;16.10;69.20
7900;DHT22;3995;50.856;4.404;2024-03-17T14:54:09;16.10;69.40
7900;DHT22;3995;50.856;4.404;2024-03-17T14:56:37;16.10;69.20
7900;DHT22;3995;50.856;4.404;2024-03-17T14:59:07;16.10;69.50
7900;DHT22;3995;50.856;4.404;2024-03-17T15:01:34;16.10;69.60
7900;DHT22;3995;50.856;4.404;2024-03-17T15:04:01;16.10;69.60
7900;DHT22;3995;50.856;4.404;2024-03-17T15:06:28;16.10;69.60
7900;DHT22;3995;50.856;4.404;2024-03-17T15:08:56;16.10;69.50
7900;DHT22;3995;50.856;4.404;2024-03-17T15:11:23;16.10;69.70
7900;DHT22;3995;50.856;4.404;2024-03-17T15:13:50;16.10;69.60
7900;DHT22;3995;50.856;4.404;2024-03-17T15:16:19;16.10;69.60
7900;DHT22;3995;50.856;4.404;2024-03-17T15:18:46;16.10;70.00
7900;DHT22;3995;50.856;4.404;2024-03-17T15:21:13;16.10;69.80
7900;DHT22;3995;50.856;4.404;2024-03-17T15:23:40;16.10;69.80
7900;DHT22;3995;50.856;4.404;2024-03-17T15:26:07;16.10;70.00
7900;DHT22;3995;50.856;4.404;2024-03-17T15:28:35;16.10;70.10
7900;DHT22;3995;50.856;4.404;2024-03-17T15:31:03;16.10;70.10
7900;DHT22;3995;50.856;4.404;2024-03-17T15:33:32;16.10;70.20
7900;DHT22;3995;50.856;4.404;2024-03-17T15:36:02;16.10;70.70
7900;DHT22;3995;50.856;4.404;2024-03-17T15:38:30;16.10;70.00
7900;DHT22;3995;50.856;4.404;2024-03-17T15:40:58;16.00;70.00
7900;DHT22;3995;50.856;4.404;2024-03-17T15:43:25;16.00;70.20
7900;DHT22;3995;50.856;4.404;2024-03-17T15:45:53;16.00;70.10
7900;DHT22;3995;50.856;4.404;2024-03-17T15:48:20;16.00;70.30
7900;DHT22;3995;50.856;4.404;2024-03-17T15:50:55;16.00;70.30
7900;DHT22;3995;50.856;4.404;2024-03-17T15:53:22;16.00;70.20
7900;DHT22;3995;50.856;4.404;2024-03-17T15:55:56;16.00;70.20
7900;DHT22;3995;50.856;4.404;2024-03-17T15:58:24;16.00;70.20
7900;DHT22;3995;50.856;4.404;2024-03-17T16:00:51;15.90;70.20
7900;DHT22;3995;50.856;4.404;2024-03-17T16:03:19;15.90;70.10
7900;DHT22;3995;50.856;4.404;2024-03-17T16:05:49;15.90;70.20
7900;DHT22;3995;50.856;4.404;2024-03-17T16:08:19;15.90;70.20
7900;DHT22;3995;50.856;4.404;2024-03-17T16:10:51;15.90;70.30
7900;DHT22;3995;50.856;4.404;2024-03-17T16:13:19;15.90;70.40
7900;DHT22;3995;50.856;4.404;2024-03-17T16:15:49;15.90;70.50
7900;DHT22;3995;50.856;4.404;2024-03-17T16:18:17;15.90;70.30
7900;DHT22;3995;50.856;4.404;2024-03-17T16:21:00;15.90;70.10
7900;DHT22;3995;50.856;4.404;2024-03-17T16:23:32;15.90;70.00
7900;DHT22;3995;50.856;4.404;2024-03-17T16:26:00;15.80;70.10
7900;DHT22;3995;50.856;4.404;2024-03-17T16:28:27;15.80;70.00
7900;DHT22;3995;50.856;4.404;2024-03-17T16:30:55;15.80;69.90
7900;DHT22;3995;50.856;4.404;2024-03-17T16:33:23;15.80;69.90
7900;DHT22;3995;50.856;4.404;2024-03-17T16:35:51;15.80;69.80
7900;DHT22;3995;50.856;4.404;2024-03-17T16:38:19;15.80;69.80
7900;DHT22;3995;50.856;4.404;2024-03-17T16:40:49;15.80;69.80
7900;DHT22;3995;50.856;4.404;2024-03-17T16:43:22;15.80;69.70
7900;DHT22;3995;50.856;4.404;2024-03-17T16:45:59;15.80;69.80
7900;DHT22;3995;50.856;4.404;2024-03-17T16:48:27;15.80;69.90
7900;DHT22;3995;50.856;4.404;2024-03-17T16:50:54;15.80;70.20